Lagrange, ME

2:22 AM EDT on July 28, 2014 (GMT -0400)
KMEGARLA2 Elev 410 ft | 45.02 °N, 69.13 °W | Change Station

Current weather conditions updated 1 second ago

Overcast
Overcast
63.7 °F
Feels Like 63.7 °F
N
1.0
Wind Variable Wind from South
Gusts 4.0 mph

Today is forecast to be Cooler than yesterday. Afternoon showers and thunderstorms.

Today
High -- | Low -- °F
--% Chance of Precip.
Yesterday
High -- | Low -- °F
Precip. -- in
5:15 AM 8:07 PM
New Moon, 2% visible
Pressure 29.69 in
Visibility 0.8 miles
Clouds Overcast 100 ft
Dew Point 63 °F
Humidity 97%
Rainfall 0.00 in
Snow Depth Not available.
UV 0 out of 12
Pollen 3.10 out of 12
Air Quality Not available.
Flu Activity Not available.
SPECI KBGR 280612Z 15007KT 3/4SM R15/3000V3500FT BR OVC001 18/17 A2969 RMK AO2 T01830172

More Conditions Fewer Conditions

Pressure 29.69 in
Visibility 0.8 miles
Clouds Overcast 100 ft
Dew Point 63 °F
Humidity 97%
Rainfall 0.00 in
Snow Depth Not available.
UV 0 out of 12
Pollen 3.10 out of 12
Air Quality Not available.
Flu Activity Not available.
SPECI KBGR 280612Z 15007KT 3/4SM R15/3000V3500FT BR OVC001 18/17 A2969 RMK AO2 T01830172

More Conditions Fewer Conditions

10-Day Weather Forecast

Almanac

Astronomy

Jul. 28, 2014 Rise Set
Actual Time 5:15 AM EDT 8:07 PM EDT
Civil Twilight 4:41 AM EDT 8:41 PM EDT
Nautical Twilight 3:57 AM EDT 9:25 PM EDT
Astronomical Twilight 3:05 AM EDT 10:16 PM EDT
Moon 7:01 AM EDT 8:38 PM EDT
Length of Visible Light 16h 00m
Length of Day
14h 51m
Tomorrow will be 2m 18s shorter.
New Moon, 2% of the Moon is Illuminated
Today
New Moon
Aug 3
First Quarter
Aug 10
Full
Aug 17
Last Quarter
Aug 25
New

Today's Extremes

State Highs State Lows

Community

WunderPhotos

Upload Photos

1,738,289 photos uploaded!

Nearby

Air Quality

  Air Quality AQ Index Pollutant
Monday Good
OZONE
Monday Good
PM2.5
Tuesday Good
OZONE
Tuesday Good
PM2.5

Snow Depth

Station Depth Elevation
No new snow has been reported.

Earthquake Activity

City Distance Mag. Time & Date
No recent earthquake activity has been reported nearby.
Minimum magnitude displayed is 2.5.

Coastal Water Temperatures

Place Temperature
No Stations Reporting

Nearby Weather Stations

Station Location Temp. Dew Point Humidity Wind Precip. Elev Updated Type
Garland, ME 63.7 °F 63 °F 97% South  at  1.0 mph 0.00 in / hr 410 ft 2:22 AM EDT Rapid Fire
RAWS SUNKHAZE MEADOWS ME, Milford, ME 65 °F 65 °F 99% North  at  0 mph 0.00 in / hr 49 ft 1:31 AM EDT MADIS
Libbey Lane, Glenburn, ME 64.0 °F 62 °F 95% South  at  0.0 mph - / hr 194 ft 2:20 AM EDT Normal
HADS PISCATAQUIS RIVER NEAR DOVER-FOX ME, Sangerville, ME 65 °F - - North  at  - 0.00 in / hr 357 ft 1:30 AM EDT MADIS

Show More Stations Show Fewer Stations